Terminal Aerodrome Forecast
Issued by NWS

Home | Current Version | Previous Version | Text Only | Print | Product List | Glossary Off
Versions: 1 2 3 4 5 6 7 8 9 10 11 12 13 14 15 16 17 18 19 20 21 22 23 24 25 26 27 28 29 30 31 32 33 34 35

000
FTUS43 KLOT 230800 AAB
TAFDPA
TAF AMD
KDPA 230809Z 2308/2406 18010KT 6SM BR OVC009 WS020/21045KT
     FM230930 18010KT P6SM BKN012 OVC020
     FM231200 20013KT 6SM BR VCSH BKN018 OVC030
     FM231600 18014G20KT 6SM -SHRA BR SCT007 BKN015 OVC025
     FM232200 15012G20KT 2SM RA BR OVC006
     FM240300 18010KT 2SM RA BR OVC004=

USA.gov is the U.S. government's official web portal to all federal, state and local government web resources and services.